createdAt,value
2018-11-04T00:00:16.215Z,18.92
2018-11-04T00:00:28.147Z,18.92
2018-11-04T00:00:45.300Z,18.91
2018-11-04T00:00:57.849Z,18.90
2018-11-04T00:01:09.966Z,18.92
2018-11-04T00:01:21.903Z,18.92
2018-11-04T00:01:33.943Z,18.90
2018-11-04T00:01:46.131Z,18.89
2018-11-04T00:01:58.047Z,18.90
2018-11-04T00:02:09.961Z,18.90
2018-11-04T00:02:22.209Z,18.90
2018-11-04T00:02:35.177Z,18.91
2018-11-04T00:02:48.117Z,18.90
2018-11-04T00:03:00.161Z,18.90
2018-11-04T00:03:12.157Z,18.89
2018-11-04T00:03:24.296Z,18.90
2018-11-04T00:03:36.249Z,18.89
2018-11-04T00:03:48.214Z,18.90
2018-11-04T00:04:00.123Z,18.89
2018-11-04T00:04:12.144Z,18.89
2018-11-04T00:04:24.058Z,18.90
2018-11-04T00:04:36.608Z,18.91
2018-11-04T00:04:48.585Z,18.90
2018-11-04T00:05:00.535Z,18.89
2018-11-04T00:05:12.453Z,18.89
2018-11-04T00:05:25.801Z,18.89
2018-11-04T00:05:37.850Z,18.89
2018-11-04T00:05:49.873Z,18.91
2018-11-04T00:06:01.971Z,18.90
2018-11-04T00:06:13.961Z,18.91
2018-11-04T00:06:29.158Z,18.91
2018-11-04T00:06:42.400Z,18.91
2018-11-04T00:06:55.156Z,18.91
2018-11-04T00:07:07.093Z,18.90
2018-11-04T00:07:18.977Z,18.90
2018-11-04T00:07:30.936Z,18.91
2018-11-04T00:07:42.881Z,18.89
2018-11-04T00:08:14.875Z,18.90
2018-11-04T00:08:26.875Z,18.88
2018-11-04T00:08:38.783Z,18.89
2018-11-04T00:08:50.686Z,18.89
2018-11-04T00:09:02.713Z,18.89
2018-11-04T00:09:16.274Z,18.89
2018-11-04T00:09:28.202Z,18.90
2018-11-04T00:09:40.157Z,18.89
2018-11-04T00:09:52.121Z,18.89
2018-11-04T00:10:04.019Z,18.90
2018-11-04T00:10:15.940Z,18.87
2018-11-04T00:10:28.565Z,18.89
2018-11-04T00:10:42.425Z,18.88
2018-11-04T00:10:54.673Z,18.89
2018-11-04T00:11:06.620Z,18.88
2018-11-04T00:11:18.502Z,18.88
2018-11-04T00:11:30.430Z,18.88
2018-11-04T00:11:42.354Z,18.88
2018-11-04T00:11:54.330Z,18.88
2018-11-04T00:12:06.222Z,18.89
2018-11-04T00:12:18.133Z,18.89
2018-11-04T00:12:30.101Z,18.89
2018-11-04T00:12:42.023Z,18.88
2018-11-04T00:12:54.176Z,18.89
2018-11-04T00:13:06.097Z,18.87
2018-11-04T00:13:18.066Z,18.87
2018-11-04T00:13:29.963Z,18.86
2018-11-04T00:13:41.894Z,18.87
2018-11-04T00:13:53.983Z,18.87
2018-11-04T00:14:06.271Z,18.87
2018-11-04T00:14:18.369Z,18.88
2018-11-04T00:14:30.426Z,18.88
2018-11-04T00:14:42.352Z,18.88
2018-11-04T00:14:54.349Z,18.88
2018-11-04T00:15:06.269Z,18.88
2018-11-04T00:15:18.304Z,18.88
2018-11-04T00:15:30.640Z,18.89
2018-11-04T00:15:44.279Z,18.88
2018-11-04T00:15:56.674Z,18.89
2018-11-04T00:16:08.646Z,18.90
2018-11-04T00:16:20.573Z,18.91
2018-11-04T00:16:32.503Z,18.90
2018-11-04T00:16:44.415Z,18.90
2018-11-04T00:16:57.884Z,18.89
2018-11-04T00:17:11.635Z,18.90
2018-11-04T00:17:23.550Z,18.89
2018-11-04T00:17:35.514Z,18.88
2018-11-04T00:17:47.463Z,18.89
2018-11-04T00:17:59.418Z,18.89
2018-11-04T00:18:11.720Z,18.89
2018-11-04T00:18:23.794Z,18.88
2018-11-04T00:18:35.786Z,18.87
2018-11-04T00:18:47.688Z,18.88
2018-11-04T00:19:00.118Z,18.88
2018-11-04T00:19:12.580Z,18.89
2018-11-04T00:19:27.847Z,18.88
2018-11-04T00:19:40.654Z,18.88
2018-11-04T00:19:52.580Z,18.87
2018-11-04T00:20:04.463Z,18.88
2018-11-04T00:20:16.409Z,18.88
2018-11-04T00:20:28.363Z,18.89
2018-11-04T00:20:40.268Z,18.88
2018-11-04T00:20:52.143Z,18.88
2018-11-04T00:21:04.086Z,18.89
2018-11-04T00:21:16.067Z,18.88
2018-11-04T00:21:30.347Z,18.89
2018-11-04T00:21:44.712Z,18.89
2018-11-04T00:21:56.491Z,18.87
2018-11-04T00:22:08.256Z,18.87
2018-11-04T00:22:20.004Z,18.89
2018-11-04T00:22:31.760Z,18.88
2018-11-04T00:22:43.503Z,18.89
2018-11-04T00:22:55.299Z,18.90
2018-11-04T00:23:07.066Z,18.88
2018-11-04T00:23:18.835Z,18.88
2018-11-04T00:23:30.596Z,18.88
2018-11-04T00:23:42.728Z,18.87
2018-11-04T00:23:54.792Z,18.88
2018-11-04T00:24:06.619Z,18.89
2018-11-04T00:24:18.451Z,18.87
2018-11-04T00:25:33.380Z,18.88
2018-11-04T00:25:45.125Z,18.90
2018-11-04T00:25:56.893Z,18.90
2018-11-04T00:26:08.650Z,18.88
2018-11-04T00:26:20.428Z,18.90
2018-11-04T00:26:32.186Z,18.89
2018-11-04T00:26:43.941Z,18.89
2018-11-04T00:26:55.789Z,18.89
2018-11-04T00:27:07.500Z,18.90
2018-11-04T00:27:19.279Z,18.91
2018-11-04T00:27:31.040Z,18.91
2018-11-04T00:27:42.815Z,18.90
2018-11-04T00:27:54.598Z,18.89
2018-11-04T00:28:06.365Z,18.88
2018-11-04T00:28:18.135Z,18.89
2018-11-04T00:28:29.888Z,18.90
2018-11-04T00:28:41.663Z,18.89
2018-11-04T00:28:53.452Z,18.89
2018-11-04T00:29:05.219Z,18.89
2018-11-04T00:29:17.022Z,18.89
2018-11-04T00:29:28.862Z,18.89
2018-11-04T00:29:40.881Z,18.90
2018-11-04T00:29:52.775Z,18.89
2018-11-04T00:30:04.543Z,18.89
2018-11-04T00:30:16.387Z,18.90
2018-11-04T00:30:28.171Z,18.91
2018-11-04T00:30:39.997Z,18.90
2018-11-04T00:30:51.872Z,18.92
2018-11-04T00:31:03.702Z,18.91
2018-11-04T00:31:15.462Z,18.92
2018-11-04T00:31:27.499Z,18.91
2018-11-04T00:31:39.264Z,18.90
2018-11-04T00:31:52.104Z,18.89
2018-11-04T00:32:03.869Z,18.91
2018-11-04T00:32:15.650Z,18.89
2018-11-04T00:32:27.432Z,18.90
2018-11-04T00:32:39.341Z,18.89
2018-11-04T00:32:51.127Z,18.91
2018-11-04T00:33:02.925Z,18.91
2018-11-04T00:33:14.691Z,18.90
2018-11-04T00:33:26.457Z,18.91
2018-11-04T00:33:38.257Z,18.90
2018-11-04T00:33:50.027Z,18.89
2018-11-04T00:34:01.787Z,18.90
2018-11-04T00:34:13.581Z,18.90
2018-11-04T00:34:25.360Z,18.89
2018-11-04T00:34:41.614Z,18.90
2018-11-04T00:34:53.365Z,18.90
2018-11-04T00:35:05.112Z,18.91
2018-11-04T00:35:16.867Z,18.91
2018-11-04T00:35:28.667Z,18.91
2018-11-04T00:35:40.456Z,18.91
2018-11-04T00:35:52.230Z,18.90
2018-11-04T00:36:04.003Z,18.91
2018-11-04T00:36:15.775Z,18.92
2018-11-04T00:36:27.543Z,18.91
2018-11-04T00:36:39.294Z,18.91
2018-11-04T00:36:51.073Z,18.91
2018-11-04T00:37:02.880Z,18.91
2018-11-04T00:37:14.656Z,18.90
2018-11-04T00:37:26.424Z,18.89
2018-11-04T00:37:38.454Z,18.90
2018-11-04T00:37:50.211Z,18.90
2018-11-04T00:38:01.971Z,18.90
2018-11-04T00:38:13.735Z,18.89
2018-11-04T00:38:25.486Z,18.89
2018-11-04T00:38:37.253Z,18.90
2018-11-04T00:38:49.003Z,18.90
2018-11-04T00:39:00.823Z,18.89
2018-11-04T00:39:12.587Z,18.89
2018-11-04T00:39:24.563Z,18.88
2018-11-04T00:39:36.832Z,18.88
2018-11-04T00:39:48.591Z,18.89
2018-11-04T00:40:00.350Z,18.89
2018-11-04T00:40:12.091Z,18.89
2018-11-04T00:40:23.858Z,18.89
2018-11-04T00:40:35.607Z,18.89
2018-11-04T00:40:47.354Z,18.91
2018-11-04T00:40:59.104Z,18.90
2018-11-04T00:41:10.886Z,18.91
2018-11-04T00:41:22.666Z,18.89
2018-11-04T00:41:34.440Z,18.87
2018-11-04T00:41:46.199Z,18.87
2018-11-04T00:41:57.956Z,18.87
2018-11-04T00:42:09.716Z,18.88
2018-11-04T00:42:21.779Z,18.88
2018-11-04T00:42:33.622Z,18.88
2018-11-04T00:42:45.385Z,18.87
2018-11-04T00:42:57.155Z,18.88
2018-11-04T00:43:08.919Z,18.87
2018-11-04T00:43:20.673Z,18.89
2018-11-04T00:43:32.436Z,18.88
2018-11-04T00:43:44.175Z,18.89
2018-11-04T00:43:55.961Z,18.89
2018-11-04T00:44:07.734Z,18.88
2018-11-04T00:44:19.512Z,18.88
2018-11-04T00:44:31.267Z,18.89
2018-11-04T00:44:43.035Z,18.89
2018-11-04T00:44:54.831Z,18.88
2018-11-04T00:45:06.633Z,18.89
2018-11-04T00:45:18.404Z,18.89
2018-11-04T00:45:30.305Z,18.90
2018-11-04T00:45:41.929Z,18.90
2018-11-04T00:45:53.727Z,18.90
2018-11-04T00:46:05.494Z,18.89
2018-11-04T00:46:17.455Z,18.90
2018-11-04T00:46:29.242Z,18.91
2018-11-04T00:46:40.998Z,18.91
2018-11-04T00:46:52.795Z,18.91
2018-11-04T00:47:04.569Z,18.91
2018-11-04T00:47:16.336Z,18.91
2018-11-04T00:47:28.283Z,18.92
2018-11-04T00:47:40.461Z,18.92
2018-11-04T00:47:52.226Z,18.92
2018-11-04T00:48:03.998Z,18.92
2018-11-04T00:48:15.763Z,18.92
2018-11-04T00:48:27.594Z,18.93
2018-11-04T00:48:39.366Z,18.92
2018-11-04T00:48:51.130Z,18.92
2018-11-04T00:49:02.901Z,18.93
2018-11-04T00:49:14.662Z,18.93
2018-11-04T00:49:26.426Z,18.93
2018-11-04T00:49:38.207Z,18.92
2018-11-04T00:49:49.987Z,18.93
2018-11-04T00:50:01.776Z,18.92
2018-11-04T00:50:14.823Z,18.91
2018-11-04T00:50:26.626Z,18.91
2018-11-04T00:50:38.445Z,18.90
2018-11-04T00:50:50.224Z,18.89
2018-11-04T00:51:01.993Z,18.89
2018-11-04T00:51:13.747Z,18.89
2018-11-04T00:51:25.576Z,18.89
2018-11-04T00:51:37.350Z,18.90
2018-11-04T00:51:49.122Z,18.89
2018-11-04T00:52:00.875Z,18.89
2018-11-04T00:52:12.630Z,18.90
2018-11-04T00:52:24.384Z,18.91
2018-11-04T00:52:36.138Z,18.91
2018-11-04T00:52:47.935Z,18.90
2018-11-04T00:52:59.673Z,18.91
2018-11-04T00:53:11.427Z,18.89
2018-11-04T00:53:23.199Z,18.89
2018-11-04T00:53:34.980Z,18.90
2018-11-04T00:53:46.793Z,18.90
2018-11-04T00:53:58.699Z,18.91
2018-11-04T00:54:10.534Z,18.90
2018-11-04T00:54:22.373Z,18.91
2018-11-04T00:54:34.350Z,18.92
2018-11-04T00:54:46.133Z,18.91
2018-11-04T00:54:57.955Z,18.91
2018-11-04T00:55:10.474Z,18.92
2018-11-04T00:55:22.263Z,18.90
2018-11-04T00:55:34.053Z,18.91
2018-11-04T00:55:47.814Z,18.92
2018-11-04T00:55:59.581Z,18.90
2018-11-04T00:56:11.348Z,18.91
2018-11-04T00:56:23.109Z,18.91
2018-11-04T00:56:34.917Z,18.90
2018-11-04T00:56:46.711Z,18.91
2018-11-04T00:56:58.476Z,18.91
2018-11-04T00:57:10.259Z,18.91
2018-11-04T00:57:22.016Z,18.91
2018-11-04T00:57:33.783Z,18.91
2018-11-04T00:57:45.586Z,18.90
2018-11-04T00:57:57.348Z,18.90
2018-11-04T00:58:09.106Z,18.90
2018-11-04T00:58:20.870Z,18.91
2018-11-04T00:58:32.680Z,18.90
2018-11-04T00:58:44.516Z,18.89
2018-11-04T00:58:56.278Z,18.89
2018-11-04T00:59:08.280Z,18.90
2018-11-04T00:59:20.071Z,18.90
2018-11-04T00:59:31.848Z,18.90
2018-11-04T00:59:43.605Z,18.90
2018-11-04T00:59:55.375Z,18.90
2018-11-04T01:00:07.152Z,18.90
2018-11-04T01:00:19.668Z,18.89
2018-11-04T01:00:31.437Z,18.90
2018-11-04T01:00:43.240Z,18.90
2018-11-04T01:00:55.446Z,18.91
2018-11-04T01:01:07.242Z,18.92
2018-11-04T01:01:19.080Z,18.92
2018-11-04T01:01:30.960Z,18.92
2018-11-04T01:01:42.728Z,18.92
2018-11-04T01:01:54.495Z,18.92
2018-11-04T01:02:06.270Z,18.92
2018-11-04T01:02:18.026Z,18.93
2018-11-04T01:02:29.793Z,18.93
2018-11-04T01:02:41.906Z,18.92
2018-11-04T01:02:53.674Z,18.92
2018-11-04T01:03:05.459Z,18.92
2018-11-04T01:03:17.252Z,18.93
2018-11-04T01:03:29.040Z,18.91
2018-11-04T01:03:41.228Z,18.92
2018-11-04T01:03:53.005Z,18.92
2018-11-04T01:04:04.781Z,18.93
2018-11-04T01:04:16.931Z,18.92
2018-11-04T01:04:28.712Z,18.91
2018-11-04T01:04:40.478Z,18.92
2018-11-04T01:04:52.229Z,18.92
2018-11-04T01:05:04.015Z,18.92
2018-11-04T01:05:16.106Z,18.90
2018-11-04T01:05:27.863Z,18.91
2018-11-04T01:05:39.629Z,18.92
2018-11-04T01:05:51.387Z,18.91
2018-11-04T01:06:03.231Z,18.91
2018-11-04T01:06:15.138Z,18.92
2018-11-04T01:06:26.901Z,18.93
2018-11-04T01:06:38.665Z,18.91
2018-11-04T01:06:50.452Z,18.93
2018-11-04T01:07:02.228Z,18.91
2018-11-04T01:07:14.001Z,18.92
2018-11-04T01:07:25.786Z,18.92
2018-11-04T01:07:38.148Z,18.92
2018-11-04T01:07:49.934Z,18.93
2018-11-04T01:08:01.823Z,18.92
2018-11-04T01:08:13.579Z,18.91
2018-11-04T01:08:25.400Z,18.91
2018-11-04T01:08:37.174Z,18.92
2018-11-04T01:08:48.992Z,18.90
2018-11-04T01:09:00.829Z,18.92
2018-11-04T01:09:12.569Z,18.90
2018-11-04T01:09:24.302Z,18.89
2018-11-04T01:09:36.075Z,18.90
2018-11-04T01:09:47.840Z,18.90
2018-11-04T01:09:59.590Z,18.90
2018-11-04T01:10:12.056Z,18.91
2018-11-04T01:10:23.818Z,18.90
2018-11-04T01:10:35.619Z,18.89
2018-11-04T01:10:47.397Z,18.89
2018-11-04T01:10:59.193Z,18.90
2018-11-04T01:11:10.970Z,18.89
2018-11-04T01:11:22.749Z,18.89
2018-11-04T01:11:35.368Z,18.89
2018-11-04T01:11:47.828Z,18.91
2018-11-04T01:11:59.703Z,18.90
2018-11-04T01:12:11.491Z,18.89
2018-11-04T01:12:23.261Z,18.91
2018-11-04T01:12:35.064Z,18.90
2018-11-04T01:12:46.814Z,18.90
2018-11-04T01:12:58.576Z,18.89
2018-11-04T01:13:10.341Z,18.89
2018-11-04T01:13:22.107Z,18.89
2018-11-04T01:13:33.916Z,18.88
2018-11-04T01:13:45.652Z,18.87
2018-11-04T01:13:57.415Z,18.87
2018-11-04T01:14:09.409Z,18.87
2018-11-04T01:14:21.185Z,18.88
2018-11-04T01:14:32.980Z,18.89
2018-11-04T01:14:44.754Z,18.89
2018-11-04T01:14:56.507Z,18.88
2018-11-04T01:15:09.336Z,18.89
2018-11-04T01:15:21.868Z,18.89
2018-11-04T01:15:34.075Z,18.89
2018-11-04T01:15:49.907Z,18.90
2018-11-04T01:16:02.274Z,18.89
2018-11-04T01:16:14.603Z,18.89
2018-11-04T01:16:27.117Z,18.89
2018-11-04T01:16:39.370Z,18.89
2018-11-04T01:16:51.524Z,18.88
2018-11-04T01:17:07.622Z,18.87
2018-11-04T01:17:19.787Z,18.88
2018-11-04T01:17:32.085Z,18.87
2018-11-04T01:17:44.701Z,18.87
2018-11-04T01:17:57.220Z,18.88
2018-11-04T01:18:09.823Z,18.89
2018-11-04T01:18:22.360Z,18.87
2018-11-04T01:18:34.768Z,18.88
2018-11-04T01:18:48.489Z,18.88
2018-11-04T01:21:26.579Z,18.86
2018-11-04T01:21:38.972Z,18.85
2018-11-04T01:21:51.385Z,18.85
2018-11-04T01:22:04.397Z,18.85
2018-11-04T01:22:17.057Z,18.85
2018-11-04T01:22:29.779Z,18.85
2018-11-04T01:22:41.983Z,18.86
2018-11-04T01:22:54.085Z,18.85
2018-11-04T01:23:06.442Z,18.84
2018-11-04T01:23:18.917Z,18.84
2018-11-04T01:23:31.341Z,18.84
2018-11-04T01:23:43.549Z,18.83
2018-11-04T01:23:55.669Z,18.85
2018-11-04T01:24:11.029Z,18.84
2018-11-04T01:24:24.616Z,18.85
2018-11-04T01:24:37.278Z,18.85
2018-11-04T01:24:49.362Z,18.84
2018-11-04T01:25:01.672Z,18.84
2018-11-04T01:25:14.211Z,18.83
2018-11-04T01:25:26.613Z,18.84
2018-11-04T01:26:12.925Z,18.84
2018-11-04T01:26:26.350Z,18.84
2018-11-04T01:26:38.706Z,18.84
2018-11-04T01:26:50.788Z,18.84
2018-11-04T01:27:26.372Z,18.85
2018-11-04T01:27:40.861Z,18.85
2018-11-04T01:27:52.847Z,18.85
2018-11-04T01:28:05.070Z,18.84
2018-11-04T01:28:17.207Z,18.84
2018-11-04T01:28:29.519Z,18.84
2018-11-04T01:28:41.997Z,18.83
2018-11-04T01:28:54.385Z,18.84
2018-11-04T01:29:07.022Z,18.83
2018-11-04T01:29:19.255Z,18.83
2018-11-04T01:29:31.377Z,18.84
2018-11-04T01:29:43.733Z,18.84
2018-11-04T01:29:56.029Z,18.85
2018-11-04T01:30:08.168Z,18.84
2018-11-04T01:30:20.585Z,18.86
2018-11-04T01:30:32.362Z,18.85
2018-11-04T01:30:44.106Z,18.84
2018-11-04T01:30:55.854Z,18.84
2018-11-04T01:31:07.616Z,18.84
2018-11-04T01:31:19.374Z,18.85
2018-11-04T01:31:31.124Z,18.85
2018-11-04T01:31:42.900Z,18.85
2018-11-04T01:31:54.674Z,18.84
2018-11-04T01:32:06.543Z,18.84
2018-11-04T01:32:18.324Z,18.83
2018-11-04T01:32:30.142Z,18.84
2018-11-04T01:32:42.006Z,18.83
2018-11-04T01:32:53.769Z,18.83
2018-11-04T01:33:05.552Z,18.84
2018-11-04T01:33:17.320Z,18.84
2018-11-04T01:33:29.088Z,18.84
2018-11-04T01:33:40.898Z,18.84
2018-11-04T01:33:52.666Z,18.83
2018-11-04T01:34:04.416Z,18.83
2018-11-04T01:34:16.182Z,18.83
2018-11-04T01:34:27.946Z,18.82
2018-11-04T01:34:39.730Z,18.83
2018-11-04T01:34:51.508Z,18.82
2018-11-04T01:35:03.266Z,18.83
2018-11-04T01:35:15.037Z,18.84
2018-11-04T01:35:26.829Z,18.83
2018-11-04T01:35:38.623Z,18.83
2018-11-04T01:35:50.355Z,18.84
2018-11-04T01:36:02.133Z,18.83
2018-11-04T01:36:13.903Z,18.84
2018-11-04T01:36:25.655Z,18.83
2018-11-04T01:36:37.587Z,18.83
2018-11-04T01:36:49.329Z,18.83
2018-11-04T01:37:01.084Z,18.82
2018-11-04T01:37:12.857Z,18.81
2018-11-04T01:37:24.602Z,18.81
2018-11-04T01:37:36.385Z,18.81
2018-11-04T01:37:48.152Z,18.83
2018-11-04T01:37:59.917Z,18.83
2018-11-04T01:38:11.675Z,18.81
2018-11-04T01:38:23.430Z,18.81
2018-11-04T01:38:35.176Z,18.81
2018-11-04T01:38:46.930Z,18.83
2018-11-04T01:38:58.690Z,18.82
2018-11-04T01:39:11.018Z,18.81
2018-11-04T01:39:22.776Z,18.81
2018-11-04T01:39:34.543Z,18.81
2018-11-04T01:39:46.311Z,18.82
2018-11-04T01:39:58.055Z,18.82
2018-11-04T01:40:10.398Z,18.82
2018-11-04T01:40:22.142Z,18.82
2018-11-04T01:40:33.904Z,18.83
2018-11-04T01:40:45.702Z,18.83
2018-11-04T01:40:57.485Z,18.84
2018-11-04T01:41:09.242Z,18.82
2018-11-04T01:41:20.992Z,18.81
2018-11-04T01:41:32.751Z,18.82
2018-11-04T01:41:44.516Z,18.80
2018-11-04T01:41:56.266Z,18.80
2018-11-04T01:42:08.019Z,18.81
2018-11-04T01:42:19.791Z,18.81
2018-11-04T01:42:31.556Z,18.81
2018-11-04T01:42:43.357Z,18.81
2018-11-04T01:42:55.134Z,18.82
2018-11-04T01:43:06.904Z,18.80
2018-11-04T01:43:18.668Z,18.81
2018-11-04T01:43:30.411Z,18.81
2018-11-04T01:43:42.172Z,18.81
2018-11-04T01:43:53.944Z,18.83
2018-11-04T01:44:05.701Z,18.83
2018-11-04T01:44:17.516Z,18.83
2018-11-04T01:44:29.275Z,18.83
2018-11-04T01:44:41.075Z,18.81
2018-11-04T01:44:52.819Z,18.81
2018-11-04T01:45:04.575Z,18.83
2018-11-04T01:45:16.345Z,18.84
2018-11-04T01:45:28.098Z,18.83
2018-11-04T01:45:39.855Z,18.83
2018-11-04T01:45:51.621Z,18.82
2018-11-04T01:46:03.369Z,18.79
2018-11-04T01:46:15.131Z,18.80
2018-11-04T01:46:26.911Z,18.81
2018-11-04T01:46:39.034Z,18.80
2018-11-04T01:47:10.241Z,18.81
2018-11-04T01:47:22.113Z,18.81
2018-11-04T01:47:33.875Z,18.82
2018-11-04T01:47:45.812Z,18.81
2018-11-04T01:47:57.596Z,18.81
2018-11-04T01:48:09.363Z,18.83
2018-11-04T01:48:21.211Z,18.81
2018-11-04T01:48:32.992Z,18.81
2018-11-04T01:48:44.884Z,18.80
2018-11-04T01:48:56.725Z,18.79
2018-11-04T01:49:08.723Z,18.79
2018-11-04T01:49:20.633Z,18.79
2018-11-04T01:49:32.926Z,18.78
2018-11-04T01:49:44.807Z,18.77
2018-11-04T01:49:56.694Z,18.78
2018-11-04T01:50:08.483Z,18.77
2018-11-04T01:50:21.560Z,18.77
2018-11-04T01:50:33.347Z,18.76
2018-11-04T01:50:45.113Z,18.75
2018-11-04T01:50:56.853Z,18.77
2018-11-04T01:51:08.806Z,18.77
2018-11-04T01:51:20.690Z,18.78
2018-11-04T01:51:32.603Z,18.79
2018-11-04T01:51:44.537Z,18.79
2018-11-04T01:51:56.438Z,18.78
2018-11-04T01:52:08.353Z,18.79
2018-11-04T01:52:20.273Z,18.79
2018-11-04T01:52:32.217Z,18.80
2018-11-04T01:52:44.185Z,18.79
2018-11-04T01:52:56.142Z,18.79
2018-11-04T01:53:10.282Z,18.80
2018-11-04T01:53:23.920Z,18.79
2018-11-04T01:53:55.329Z,18.78
2018-11-04T01:54:07.358Z,18.79
2018-11-04T01:54:19.282Z,18.78
2018-11-04T01:54:31.173Z,18.78
2018-11-04T01:54:43.018Z,18.79
2018-11-04T01:54:54.913Z,18.78
2018-11-04T01:55:07.066Z,18.79
2018-11-04T01:55:19.008Z,18.78
2018-11-04T01:55:30.961Z,18.78
2018-11-04T01:55:42.852Z,18.77
2018-11-04T01:55:54.745Z,18.79
2018-11-04T01:56:06.606Z,18.78
2018-11-04T01:56:18.466Z,18.79
2018-11-04T01:56:30.392Z,18.78
2018-11-04T01:56:42.342Z,18.78
2018-11-04T01:56:54.278Z,18.79
2018-11-04T01:57:06.192Z,18.79
2018-11-04T01:57:18.128Z,18.79
2018-11-04T01:57:30.108Z,18.79
2018-11-04T01:58:03.642Z,18.79
2018-11-04T01:58:15.568Z,18.78
2018-11-04T01:58:27.452Z,18.77
2018-11-04T01:58:39.334Z,18.77
2018-11-04T01:58:51.241Z,18.77
2018-11-04T01:59:03.584Z,18.77
2018-11-04T01:59:16.432Z,18.78
2018-11-04T01:59:29.184Z,18.77
2018-11-04T01:59:41.270Z,18.77
2018-11-04T01:59:54.596Z,18.78
2018-11-04T02:00:06.488Z,18.78
2018-11-04T02:00:18.395Z,18.78
2018-11-04T02:00:30.346Z,18.79
2018-11-04T02:00:44.698Z,18.78
2018-11-04T02:00:57.191Z,18.77
2018-11-04T02:01:09.210Z,18.78
2018-11-04T02:01:21.225Z,18.77
2018-11-04T02:01:33.392Z,18.77
2018-11-04T02:01:46.362Z,18.78
2018-11-04T02:01:58.967Z,18.78
2018-11-04T02:02:11.025Z,18.77
2018-11-04T02:02:22.969Z,18.78
2018-11-04T02:02:35.129Z,18.78
2018-11-04T02:02:47.830Z,18.78
2018-11-04T02:03:00.788Z,18.78
2018-11-04T02:03:12.762Z,18.78
2018-11-04T02:03:24.664Z,18.78
2018-11-04T02:03:36.574Z,18.78
2018-11-04T02:03:48.337Z,18.79
2018-11-04T02:04:00.137Z,18.78
2018-11-04T02:04:11.995Z,18.78
2018-11-04T02:04:23.795Z,18.78
2018-11-04T02:04:35.587Z,18.78
2018-11-04T02:04:47.357Z,18.78
2018-11-04T02:04:59.099Z,18.78
2018-11-04T02:05:11.829Z,18.80
2018-11-04T02:05:23.602Z,18.79
2018-11-04T02:05:35.348Z,18.79
2018-11-04T02:05:47.142Z,18.78
2018-11-04T02:05:58.994Z,18.78
2018-11-04T02:06:11.456Z,18.77
2018-11-04T02:06:23.387Z,18.78
2018-11-04T02:06:35.456Z,18.77
2018-11-04T02:06:47.398Z,18.77
2018-11-04T02:06:59.167Z,18.77
2018-11-04T02:07:10.939Z,18.77
2018-11-04T02:07:22.695Z,18.78
2018-11-04T02:07:34.575Z,18.78
2018-11-04T02:07:46.396Z,18.77
2018-11-04T02:07:58.195Z,18.78
2018-11-04T02:08:10.012Z,18.78
2018-11-04T02:08:21.785Z,18.79
2018-11-04T02:08:33.592Z,18.78
2018-11-04T02:08:45.355Z,18.78
2018-11-04T02:08:57.521Z,18.79
2018-11-04T02:09:10.860Z,18.78
2018-11-04T02:09:22.654Z,18.78
2018-11-04T02:09:34.473Z,18.78
2018-11-04T02:09:46.234Z,18.78
2018-11-04T02:09:57.979Z,18.78
2018-11-04T02:10:10.399Z,18.77
2018-11-04T02:10:22.223Z,18.78
2018-11-04T02:10:34.089Z,18.77
2018-11-04T02:10:45.935Z,18.77
2018-11-04T02:10:57.781Z,18.76
2018-11-04T02:11:11.155Z,18.76
2018-11-04T02:11:23.892Z,18.75
2018-11-04T02:11:35.672Z,18.76
2018-11-04T02:11:47.420Z,18.76
2018-11-04T02:11:59.214Z,18.75
2018-11-04T02:12:10.976Z,18.76
2018-11-04T02:12:22.853Z,18.77
2018-11-04T02:12:34.597Z,18.77
2018-11-04T02:12:46.355Z,18.76
2018-11-04T02:12:58.110Z,18.77
2018-11-04T02:13:09.866Z,18.77
2018-11-04T02:13:21.635Z,18.77
2018-11-04T02:13:33.391Z,18.77
2018-11-04T02:13:45.154Z,18.77
2018-11-04T02:13:56.911Z,18.77
2018-11-04T02:14:08.701Z,18.78
2018-11-04T02:14:20.447Z,18.78
2018-11-04T02:14:32.200Z,18.78
2018-11-04T02:14:43.963Z,18.76
2018-11-04T02:14:55.723Z,18.77
2018-11-04T02:15:07.555Z,18.77
2018-11-04T02:15:19.294Z,18.76
2018-11-04T02:15:31.067Z,18.77
2018-11-04T02:15:42.823Z,18.77
2018-11-04T02:15:54.575Z,18.77
2018-11-04T02:16:06.327Z,18.77
2018-11-04T02:16:18.088Z,18.76
2018-11-04T02:16:29.839Z,18.78
2018-11-04T02:16:41.720Z,18.77
2018-11-04T02:16:53.499Z,18.77
2018-11-04T02:17:05.257Z,18.77
2018-11-04T02:17:17.012Z,18.78
2018-11-04T02:17:28.767Z,18.77
2018-11-04T02:17:40.531Z,18.78
2018-11-04T02:17:52.298Z,18.77
2018-11-04T02:18:04.052Z,18.77
2018-11-04T02:18:15.811Z,18.77
2018-11-04T02:18:28.693Z,18.78
2018-11-04T02:18:40.452Z,18.79
2018-11-04T02:18:52.212Z,18.78
2018-11-04T02:19:03.958Z,18.78
2018-11-04T02:19:15.719Z,18.77
2018-11-04T02:19:27.473Z,18.76
2018-11-04T02:19:39.234Z,18.77
2018-11-04T02:19:50.987Z,18.77
2018-11-04T02:20:02.764Z,18.78
2018-11-04T02:20:14.532Z,18.78
2018-11-04T02:20:26.298Z,18.78
2018-11-04T02:20:38.057Z,18.77
2018-11-04T02:20:49.824Z,18.77
2018-11-04T02:21:01.580Z,18.77
2018-11-04T02:21:13.322Z,18.77
2018-11-04T02:21:25.089Z,18.78
2018-11-04T02:21:36.882Z,18.77
2018-11-04T02:21:48.631Z,18.77
2018-11-04T02:22:00.391Z,18.76
2018-11-04T02:22:12.155Z,18.78
2018-11-04T02:22:23.942Z,18.77
2018-11-04T02:22:35.686Z,18.77
2018-11-04T02:22:47.456Z,18.77
2018-11-04T02:22:59.202Z,18.77
2018-11-04T02:23:10.967Z,18.78
2018-11-04T02:23:22.714Z,18.78
2018-11-04T02:23:34.501Z,18.77
2018-11-04T02:23:46.267Z,18.76
2018-11-04T02:23:58.041Z,18.77
2018-11-04T02:24:09.893Z,18.77
2018-11-04T02:24:21.654Z,18.77
2018-11-04T02:24:33.405Z,18.78
2018-11-04T02:24:45.192Z,18.77
2018-11-04T02:24:56.955Z,18.77
2018-11-04T02:25:09.684Z,18.77
2018-11-04T02:25:21.447Z,18.77
2018-11-04T02:25:33.222Z,18.75
2018-11-04T02:25:44.967Z,18.75
2018-11-04T02:25:56.735Z,18.74
2018-11-04T02:26:08.479Z,18.75
2018-11-04T02:26:20.253Z,18.74
2018-11-04T02:26:32.030Z,18.73
2018-11-04T02:26:43.786Z,18.74
2018-11-04T02:26:55.534Z,18.75
2018-11-04T02:29:33.360Z,18.74
2018-11-04T02:29:45.132Z,18.76
2018-11-04T02:29:56.907Z,18.75
2018-11-04T02:30:08.895Z,18.74
2018-11-04T02:30:20.647Z,18.75
2018-11-04T02:30:32.413Z,18.74
2018-11-04T02:30:44.180Z,18.75
2018-11-04T02:30:55.974Z,18.74
2018-11-04T02:31:07.734Z,18.75
2018-11-04T02:31:19.491Z,18.75
2018-11-04T02:31:31.263Z,18.75
2018-11-04T02:31:43.007Z,18.76
2018-11-04T02:31:54.766Z,18.75
2018-11-04T02:32:06.746Z,18.77
2018-11-04T02:32:18.532Z,18.76
2018-11-04T02:32:30.289Z,18.76
2018-11-04T02:32:42.800Z,18.76
2018-11-04T02:32:54.566Z,18.76
2018-11-04T02:33:06.324Z,18.77
2018-11-04T02:33:18.083Z,18.77
2018-11-04T02:33:29.841Z,18.76
2018-11-04T02:33:41.621Z,18.76
2018-11-04T02:33:53.380Z,18.75
2018-11-04T02:34:05.240Z,18.76
2018-11-04T02:34:16.990Z,18.75
2018-11-04T02:34:28.756Z,18.76
2018-11-04T02:34:40.542Z,18.76
2018-11-04T02:34:52.323Z,18.77
2018-11-04T02:35:04.086Z,18.76
2018-11-04T02:35:16.320Z,18.77
2018-11-04T02:35:28.069Z,18.76
2018-11-04T02:35:39.830Z,18.77
2018-11-04T02:35:51.587Z,18.76
2018-11-04T02:36:03.348Z,18.77
2018-11-04T02:36:15.149Z,18.76
2018-11-04T02:36:26.908Z,18.76
2018-11-04T02:36:38.675Z,18.76
2018-11-04T02:36:50.430Z,18.77
2018-11-04T02:37:02.188Z,18.76
2018-11-04T02:37:14.007Z,18.75
2018-11-04T02:37:25.767Z,18.75
2018-11-04T02:37:37.571Z,18.76
2018-11-04T02:37:49.344Z,18.77
2018-11-04T02:38:01.107Z,18.76
2018-11-04T02:38:12.862Z,18.76
2018-11-04T02:38:24.611Z,18.76
2018-11-04T02:38:36.376Z,18.75
2018-11-04T02:38:48.123Z,18.76
2018-11-04T02:38:59.880Z,18.75
2018-11-04T02:39:11.652Z,18.75
2018-11-04T02:39:23.394Z,18.74
2018-11-04T02:39:35.144Z,18.75
2018-11-04T02:39:46.924Z,18.75
2018-11-04T02:39:58.709Z,18.74
2018-11-04T02:40:11.464Z,18.74
2018-11-04T02:40:23.230Z,18.73
2018-11-04T02:40:34.989Z,18.74
2018-11-04T02:40:46.750Z,18.74
2018-11-04T02:40:58.524Z,18.73
2018-11-04T02:41:10.267Z,18.72
2018-11-04T02:41:22.020Z,18.73
2018-11-04T02:41:33.780Z,18.72
2018-11-04T02:41:45.548Z,18.73
2018-11-04T02:41:57.296Z,18.72
2018-11-04T02:42:09.053Z,18.73
2018-11-04T02:42:20.820Z,18.73
2018-11-04T02:42:32.589Z,18.73
2018-11-04T02:42:44.351Z,18.72